Time;durP1;ratioP1;P1;durP2;ratioP2;P2;SDS_P1;SDS_P2;PMS_P1;PMS_P2;Temp;Humidity;BMP_temperature;BMP_pressure;BME280_temperature;BME280_humidity;BME280_pressure;Samples;Min_cycle;Max_cycle;Signal;HPM_P1;HPM_P2
2022/03/08 00:01:26;;;;;;;;;;;;;;;;;;2211073;59;1928;-70
2022/03/08 00:03:59;;;;;;;;;;;;;;;;;;2211494;67;1163;-70
2022/03/08 00:06:33;;;;;;;;;;;;;;;;;;2211036;67;1180;-71
2022/03/08 00:09:06;;;;;;;;;;;;;;;;;;2210467;59;1926;-70
2022/03/08 00:11:39;;;;;;;;;;;;;;;;;;2211685;67;1233;-71
2022/03/08 00:14:15;;;;;;;;;;;;;;;;;;2210493;59;2105;-71
2022/03/08 00:16:48;;;;;;;;;;;;;;;;;;2211213;67;1215;-70
2022/03/08 00:19:21;;;;;;;;;;;;;;;;;;2211402;67;1325;-70
2022/03/08 00:21:54;;;;;;;;;;;;;;;;;;2210567;59;1582;-70
2022/03/08 00:24:27;;;;;;;;;;;;;;;;;;2211333;59;1879;-70
2022/03/08 00:27:01;;;;;;;;;;;;;;;;;;2211128;67;1090;-70
2022/03/08 00:29:36;;;;;;;;;;;;;;;;;;2210589;67;1985;-70
2022/03/08 00:32:10;;;;;;;;;;;;;;;;;;2211457;67;1164;-70
2022/03/08 00:34:43;;;;;;;;;;;;;;;;;;2211241;67;1108;-70
2022/03/08 00:37:16;;;;;;;;;;;;;;;;;;2211233;67;1270;-70
2022/03/08 00:39:49;;;;;;;;;;;;;;;;;;2211187;67;1097;-71
2022/03/08 00:42:23;;;;;;;;;;;;;;;;;;2211403;59;1596;-70
2022/03/08 00:44:59;;;;;;;;;;;;;;;;;;2210820;59;1132;-70
2022/03/08 00:47:32;;;;;;;;;;;;;;;;;;2211380;59;1109;-70
2022/03/08 00:50:06;;;;;;;;;;;;;;;;;;2211490;67;1977;-70
2022/03/08 00:52:40;;;;;;;;;;;;;;;;;;2211561;67;1140;-70
2022/03/08 00:55:13;;;;;;;;;;;;;;;;;;2211519;59;2108;-70
2022/03/08 00:57:46;;;;;;;;;;;;;;;;;;2211372;59;1148;-70
2022/03/08 01:00:23;;;;;;;;;;;;;;;;;;2211374;59;1160;-70
2022/03/08 01:02:56;;;;;;;;;;;;;;;;;;2210788;59;1557;-70
2022/03/08 01:05:31;;;;;;;;;;;;;;;;;;2211250;67;1120;-70
2022/03/08 01:08:04;;;;;;;;;;;;;;;;;;2211378;67;1156;-70
2022/03/08 01:10:37;;;;;;;;;;;;;;;;;;2210894;67;1935;-70
2022/03/08 01:13:11;;;;;;;;;;;;;;;;;;2211301;59;1274;-70
2022/03/08 01:15:46;;;;;;;;;;;;;;;;;;2211146;59;1120;-70
2022/03/08 01:18:20;;;;;;;;;;;;;;;;;;2211419;67;1241;-70
2022/03/08 01:20:53;;;;;;;;;;;;;;;;;;2210908;59;1101;-69
2022/03/08 01:23:27;;;;;;;;;;;;;;;;;;2210390;59;1897;-70
2022/03/08 01:26:00;;;;;;;;;;;;;;;;;;2211392;59;1187;-70
2022/03/08 01:28:33;;;;;;;;;;;;;;;;;;2211184;67;1090;-69
2022/03/08 01:31:09;;;;;;;;;;;;;;;;;;2210544;67;1934;-70
2022/03/08 01:33:42;;;;;;;;;;;;;;;;;;2210970;67;1114;-70
2022/03/08 01:36:15;;;;;;;;;;;;;;;;;;2210528;67;1177;-70
2022/03/08 01:38:49;;;;;;;;;;;;;;;;;;2211236;67;1105;-70
2022/03/08 01:41:22;;;;;;;;;;;;;;;;;;2209858;59;1666;-70
2022/03/08 01:43:55;;;;;;;;;;;;;;;;;;2210873;67;1206;-70
2022/03/08 01:46:31;;;;;;;;;;;;;;;;;;2211017;67;1155;-70
2022/03/08 01:49:04;;;;;;;;;;;;;;;;;;2210877;67;1936;-70
2022/03/08 01:51:39;;;;;;;;;;;;;;;;;;2211253;67;1252;-70
2022/03/08 01:54:13;;;;;;;;;;;;;;;;;;2211584;59;1876;-70
2022/03/08 01:56:46;;;;;;;;;;;;;;;;;;2211213;67;1233;-70
2022/03/08 01:59:19;;;;;;;;;;;;;;;;;;2210917;60;1320;-70
2022/03/08 02:01:55;;;;;;;;;;;;;;;;;;2210141;59;1554;-70
2022/03/08 02:04:28;;;;;;;;;;;;;;;;;;2210578;67;1159;-70
2022/03/08 02:07:02;;;;;;;;;;;;;;;;;;2211566;59;1156;-70
2022/03/08 02:09:35;;;;;;;;;;;;;;;;;;2211310;67;1937;-70
2022/03/08 02:12:09;;;;;;;;;;;;;;;;;;2210945;59;1751;-70
2022/03/08 02:14:43;;;;;;;;;;;;;;;;;;2210508;59;1116;-70
2022/03/08 02:17:19;;;;;;;;;;;;;;;;;;2210688;67;1081;-71
2022/03/08 02:19:56;;;;;;;;;;;;;;;;;;2211434;67;1096;-70
2022/03/08 02:22:32;;;;;;;;;;;;;;;;;;2209310;59;1724;-70
2022/03/08 02:25:05;;;;;;;;;;;;;;;;;;2210422;59;1917;-70
2022/03/08 02:27:42;;;;;;;;;;;;;;;;;;2210320;67;1198;-70
2022/03/08 02:30:17;;;;;;;;;;;;;;;;;;2210496;59;1933;-70
2022/03/08 02:32:50;;;;;;;;;;;;;;;;;;2210277;67;1285;-70
2022/03/08 02:35:24;;;;;;;;;;;;;;;;;;2211064;67;1165;-70
2022/03/08 02:38:02;;;;;;;;;;;;;;;;;;2211147;67;1072;-71
2022/03/08 02:40:36;;;;;;;;;;;;;;;;;;2210553;67;1086;-70
2022/03/08 02:43:10;;;;;;;;;;;;;;;;;;2210578;59;1883;-70
2022/03/08 02:45:43;;;;;;;;;;;;;;;;;;2211151;67;1192;-70
2022/03/08 02:48:16;;;;;;;;;;;;;;;;;;2211278;67;1239;-71
2022/03/08 02:50:50;;;;;;;;;;;;;;;;;;2210495;59;1932;-70
2022/03/08 02:53:25;;;;;;;;;;;;;;;;;;2211119;59;1951;-70
2022/03/08 02:55:59;;;;;;;;;;;;;;;;;;2211193;59;1248;-70
2022/03/08 02:58:32;;;;;;;;;;;;;;;;;;2211148;67;1266;-69
2022/03/08 03:01:05;;;;;;;;;;;;;;;;;;2210973;59;1660;-70
2022/03/08 03:03:38;;;;;;;;;;;;;;;;;;2210698;59;1623;-70
2022/03/08 03:06:11;;;;;;;;;;;;;;;;;;2210482;67;1084;-70
2022/03/08 03:08:47;;;;;;;;;;;;;;;;;;2210710;67;1208;-70
2022/03/08 03:11:20;;;;;;;;;;;;;;;;;;2211262;67;1936;-70
2022/03/08 03:13:53;;;;;;;;;;;;;;;;;;2210819;59;1612;-70
2022/03/08 03:16:27;;;;;;;;;;;;;;;;;;2210992;67;1127;-70
2022/03/08 03:19:00;;;;;;;;;;;;;;;;;;2210999;67;1192;-70
2022/03/08 03:21:33;;;;;;;;;;;;;;;;;;2210712;59;1778;-70
2022/03/08 03:24:09;;;;;;;;;;;;;;;;;;2210061;67;2257;-70
2022/03/08 03:26:42;;;;;;;;;;;;;;;;;;2210511;67;1182;-70
2022/03/08 03:29:16;;;;;;;;;;;;;;;;;;2210907;67;1171;-70
2022/03/08 03:31:49;;;;;;;;;;;;;;;;;;2211037;67;1934;-70
2022/03/08 03:34:22;;;;;;;;;;;;;;;;;;2211883;67;1274;-70
2022/03/08 03:36:55;;;;;;;;;;;;;;;;;;2211454;59;1132;-70
2022/03/08 03:39:31;;;;;;;;;;;;;;;;;;2211757;67;1302;-70
2022/03/08 03:42:04;;;;;;;;;;;;;;;;;;2211099;59;1710;-70
2022/03/08 03:44:37;;;;;;;;;;;;;;;;;;2211736;67;1090;-71
2022/03/08 03:47:11;;;;;;;;;;;;;;;;;;2211968;67;1206;-70
2022/03/08 03:49:44;;;;;;;;;;;;;;;;;;2210987;67;1929;-70
2022/03/08 03:52:17;;;;;;;;;;;;;;;;;;2211550;59;1266;-70
2022/03/08 03:54:53;;;;;;;;;;;;;;;;;;2211591;67;2011;-70
2022/03/08 03:57:26;;;;;;;;;;;;;;;;;;2212108;67;1228;-70
2022/03/08 03:59:59;;;;;;;;;;;;;;;;;;2212662;67;1111;-70
2022/03/08 04:02:32;;;;;;;;;;;;;;;;;;2211448;59;1709;-70
2022/03/08 04:05:06;;;;;;;;;;;;;;;;;;2211862;67;1209;-70
2022/03/08 04:07:39;;;;;;;;;;;;;;;;;;2212177;59;1086;-70
2022/03/08 04:10:16;;;;;;;;;;;;;;;;;;2213065;67;1927;-70
2022/03/08 04:12:49;;;;;;;;;;;;;;;;;;2211607;67;1202;-70
2022/03/08 04:15:22;;;;;;;;;;;;;;;;;;2211738;59;1138;-71
2022/03/08 04:17:55;;;;;;;;;;;;;;;;;;2211621;59;1231;-70
2022/03/08 04:20:28;;;;;;;;;;;;;;;;;;2211604;67;1214;-70
2022/03/08 04:23:01;;;;;;;;;;;;;;;;;;2210560;59;1582;-70
2022/03/08 04:25:37;;;;;;;;;;;;;;;;;;2211258;59;2314;-71
2022/03/08 04:28:11;;;;;;;;;;;;;;;;;;2211454;59;1069;-70
2022/03/08 04:30:44;;;;;;;;;;;;;;;;;;2210710;59;1932;-70
2022/03/08 04:33:17;;;;;;;;;;;;;;;;;;2211271;59;1190;-70
2022/03/08 04:35:51;;;;;;;;;;;;;;;;;;2211553;67;1107;-69
2022/03/08 04:38:24;;;;;;;;;;;;;;;;;;2210363;59;1223;-70
2022/03/08 04:41:02;;;;;;;;;;;;;;;;;;2211260;59;1289;-70
2022/03/08 04:43:35;;;;;;;;;;;;;;;;;;2211318;59;1572;-70
2022/03/08 04:46:08;;;;;;;;;;;;;;;;;;2210749;59;1184;-70
2022/03/08 04:48:41;;;;;;;;;;;;;;;;;;2211346;59;1246;-70
2022/03/08 04:51:14;;;;;;;;;;;;;;;;;;2211439;67;1930;-70
2022/03/08 04:53:48;;;;;;;;;;;;;;;;;;2211382;67;2393;-70
2022/03/08 04:56:24;;;;;;;;;;;;;;;;;;2211549;59;1158;-70
2022/03/08 04:58:58;;;;;;;;;;;;;;;;;;2211357;67;1136;-71
2022/03/08 05:01:31;;;;;;;;;;;;;;;;;;2210666;59;1708;-69
2022/03/08 05:04:04;;;;;;;;;;;;;;;;;;2210454;67;1219;-70
2022/03/08 05:06:38;;;;;;;;;;;;;;;;;;2211687;67;1220;-71
2022/03/08 05:09:11;;;;;;;;;;;;;;;;;;2210963;59;1093;-70
2022/03/08 05:11:47;;;;;;;;;;;;;;;;;;2211176;67;1935;-70
2022/03/08 05:14:20;;;;;;;;;;;;;;;;;;2210590;67;1160;-70
2022/03/08 05:16:53;;;;;;;;;;;;;;;;;;2211165;67;1212;-70
2022/03/08 05:19:26;;;;;;;;;;;;;;;;;;2211288;67;1295;-71
2022/03/08 05:22:00;;;;;;;;;;;;;;;;;;2210444;59;1597;-70
2022/03/08 05:24:33;;;;;;;;;;;;;;;;;;2211146;59;2071;-70
2022/03/08 05:27:10;;;;;;;;;;;;;;;;;;2210838;67;1307;-70
2022/03/08 05:29:43;;;;;;;;;;;;;;;;;;2210616;59;1060;-71
2022/03/08 05:32:17;;;;;;;;;;;;;;;;;;2210663;67;1983;-71
2022/03/08 05:34:50;;;;;;;;;;;;;;;;;;2210908;59;1144;-71
2022/03/08 05:37:23;;;;;;;;;;;;;;;;;;2211654;67;1263;-70
2022/03/08 05:39:56;;;;;;;;;;;;;;;;;;2211194;59;1087;-70
2022/03/08 05:42:32;;;;;;;;;;;;;;;;;;2211189;59;1759;-70
2022/03/08 05:45:05;;;;;;;;;;;;;;;;;;2210807;67;1386;-70
2022/03/08 05:47:39;;;;;;;;;;;;;;;;;;2211112;67;1310;-70
2022/03/08 05:50:13;;;;;;;;;;;;;;;;;;2211241;67;1124;-70
2022/03/08 05:52:46;;;;;;;;;;;;;;;;;;2210771;59;1929;-71
2022/03/08 05:55:20;;;;;;;;;;;;;;;;;;2210878;59;2416;-71
2022/03/08 05:57:56;;;;;;;;;;;;;;;;;;2211114;59;1100;-71
2022/03/08 06:00:29;;;;;;;;;;;;;;;;;;2209551;67;1104;-71
2022/03/08 06:03:02;;;;;;;;;;;;;;;;;;2210723;59;1442;-70
2022/03/08 06:05:35;;;;;;;;;;;;;;;;;;2210458;59;1069;-73
2022/03/08 06:08:08;;;;;;;;;;;;;;;;;;2211251;67;1256;-73
2022/03/08 06:10:42;;;;;;;;;;;;;;;;;;2210403;59;1987;-73
2022/03/08 06:13:17;;;;;;;;;;;;;;;;;;2211142;59;1238;-73
2022/03/08 06:15:51;;;;;;;;;;;;;;;;;;2211253;59;1108;-72
2022/03/08 06:18:24;;;;;;;;;;;;;;;;;;2210619;67;1238;-73
2022/03/08 06:20:57;;;;;;;;;;;;;;;;;;2210984;67;1315;-73
2022/03/08 06:23:30;;;;;;;;;;;;;;;;;;2210072;59;2089;-72
2022/03/08 06:26:03;;;;;;;;;;;;;;;;;;2211122;67;1180;-73
2022/03/08 06:28:39;;;;;;;;;;;;;;;;;;2210884;67;1097;-73
2022/03/08 06:31:12;;;;;;;;;;;;;;;;;;2210289;59;1929;-73
2022/03/08 06:33:45;;;;;;;;;;;;;;;;;;2210055;59;1758;-72
2022/03/08 06:36:19;;;;;;;;;;;;;;;;;;2210705;59;1281;-73
2022/03/08 06:38:52;;;;;;;;;;;;;;;;;;2210766;67;1078;-73
2022/03/08 06:41:26;;;;;;;;;;;;;;;;;;2210738;59;1587;-73
2022/03/08 06:44:01;;;;;;;;;;;;;;;;;;2207775;59;2386;-73
2022/03/08 06:46:36;;;;;;;;;;;;;;;;;;2209366;59;1728;-73
2022/03/08 06:49:10;;;;;;;;;;;;;;;;;;2210833;60;1118;-72
2022/03/08 06:51:43;;;;;;;;;;;;;;;;;;2210383;59;1922;-73
2022/03/08 06:54:16;;;;;;;;;;;;;;;;;;2209763;59;2518;-73
2022/03/08 06:56:49;;;;;;;;;;;;;;;;;;2209536;59;2356;-73
2022/03/08 06:59:25;;;;;;;;;;;;;;;;;;2209996;59;1072;-73
2022/03/08 07:01:59;;;;;;;;;;;;;;;;;;2209899;59;1755;-73
2022/03/08 07:04:32;;;;;;;;;;;;;;;;;;2211108;67;1172;-73
2022/03/08 07:07:05;;;;;;;;;;;;;;;;;;2210952;59;988;-73
2022/03/08 07:09:38;;;;;;;;;;;;;;;;;;2211606;67;1125;-73
2022/03/08 07:12:12;;;;;;;;;;;;;;;;;;2211348;59;1989;-73
2022/03/08 07:14:48;;;;;;;;;;;;;;;;;;2211106;59;1089;-71
2022/03/08 07:17:21;;;;;;;;;;;;;;;;;;2210612;59;1832;-71
2022/03/08 07:19:54;;;;;;;;;;;;;;;;;;2209944;59;1712;-71
2022/03/08 07:22:27;;;;;;;;;;;;;;;;;;2209590;59;1579;-71
2022/03/08 07:25:00;;;;;;;;;;;;;;;;;;2209136;59;1839;-71
2022/03/08 07:27:34;;;;;;;;;;;;;;;;;;2209255;59;1567;-70
2022/03/08 07:30:11;;;;;;;;;;;;;;;;;;2210120;59;1708;-70
2022/03/08 07:32:44;;;;;;;;;;;;;;;;;;2210712;59;1936;-70
2022/03/08 07:35:18;;;;;;;;;;;;;;;;;;2210964;67;1157;-70
2022/03/08 07:37:51;;;;;;;;;;;;;;;;;;2210838;67;1060;-70
2022/03/08 07:40:24;;;;;;;;;;;;;;;;;;2210973;67;1235;-70
2022/03/08 07:42:57;;;;;;;;;;;;;;;;;;2211049;59;1744;-71
2022/03/08 07:45:35;;;;;;;;;;;;;;;;;;2210982;67;1145;-70
2022/03/08 07:48:08;;;;;;;;;;;;;;;;;;2210924;67;1219;-71
2022/03/08 07:50:41;;;;;;;;;;;;;;;;;;2210942;67;1221;-70
2022/03/08 07:53:14;;;;;;;;;;;;;;;;;;2210864;67;1937;-70
2022/03/08 07:55:48;;;;;;;;;;;;;;;;;;2210779;59;2342;-71
2022/03/08 07:58:21;;;;;;;;;;;;;;;;;;2210963;59;1132;-71
2022/03/08 08:00:57;;;;;;;;;;;;;;;;;;2209568;59;1281;-70
2022/03/08 08:03:30;;;;;;;;;;;;;;;;;;2210105;59;1694;-71
2022/03/08 08:06:03;;;;;;;;;;;;;;;;;;2209924;67;1287;-70
2022/03/08 08:08:37;;;;;;;;;;;;;;;;;;2211079;67;1229;-70
2022/03/08 08:11:10;;;;;;;;;;;;;;;;;;2211055;67;1208;-70
2022/03/08 08:13:43;;;;;;;;;;;;;;;;;;2211742;67;1949;-70
2022/03/08 08:16:19;;;;;;;;;;;;;;;;;;2211197;67;1276;-70
2022/03/08 08:18:53;;;;;;;;;;;;;;;;;;2211822;67;1089;-70
2022/03/08 08:21:26;;;;;;;;;;;;;;;;;;2212104;59;1622;-71
2022/03/08 08:24:00;;;;;;;;;;;;;;;;;;2212081;59;2177;-70
2022/03/08 08:26:33;;;;;;;;;;;;;;;;;;2211325;67;1240;-70
2022/03/08 08:29:07;;;;;;;;;;;;;;;;;;2211247;67;1217;-70
2022/03/08 08:31:42;;;;;;;;;;;;;;;;;;2209325;59;1942;-71
2022/03/08 08:34:16;;;;;;;;;;;;;;;;;;2211205;59;1198;-70
2022/03/08 08:36:49;;;;;;;;;;;;;;;;;;2210926;59;1696;-71
2022/03/08 08:39:22;;;;;;;;;;;;;;;;;;2209785;59;1693;-71
2022/03/08 08:41:56;;;;;;;;;;;;;;;;;;2210150;59;1684;-70
2022/03/08 08:44:29;;;;;;;;;;;;;;;;;;2210819;59;1832;-70
2022/03/08 08:47:06;;;;;;;;;;;;;;;;;;2210679;59;1622;-72
2022/03/08 08:49:39;;;;;;;;;;;;;;;;;;2211238;59;1057;-70
2022/03/08 08:52:12;;;;;;;;;;;;;;;;;;2210563;59;1949;-70
2022/03/08 08:54:47;;;;;;;;;;;;;;;;;;2210047;59;1900;-70
2022/03/08 08:57:20;;;;;;;;;;;;;;;;;;2210502;59;2051;-70
2022/03/08 08:59:53;;;;;;;;;;;;;;;;;;2211198;59;1054;-70
2022/03/08 09:02:29;;;;;;;;;;;;;;;;;;2210079;59;1791;-70
2022/03/08 09:05:02;;;;;;;;;;;;;;;;;;2209829;59;1814;-70
2022/03/08 09:07:35;;;;;;;;;;;;;;;;;;2210632;59;1129;-70
2022/03/08 09:10:09;;;;;;;;;;;;;;;;;;2210786;67;1065;-70
2022/03/08 09:12:43;;;;;;;;;;;;;;;;;;2209740;59;1979;-69
2022/03/08 09:15:16;;;;;;;;;;;;;;;;;;2209952;59;1726;-72
2022/03/08 09:17:52;;;;;;;;;;;;;;;;;;2211554;59;1796;-70
2022/03/08 09:20:26;;;;;;;;;;;;;;;;;;2207933;59;1885;-70
2022/03/08 09:22:59;;;;;;;;;;;;;;;;;;2209562;59;1567;-70
2022/03/08 09:25:33;;;;;;;;;;;;;;;;;;2210319;59;2238;-70
2022/03/08 09:28:06;;;;;;;;;;;;;;;;;;2210790;59;1263;-70
2022/03/08 09:30:42;;;;;;;;;;;;;;;;;;2210411;67;1239;-69
2022/03/08 09:33:18;;;;;;;;;;;;;;;;;;2210830;67;1947;-72
2022/03/08 09:35:52;;;;;;;;;;;;;;;;;;2211064;59;1121;-70
2022/03/08 09:38:25;;;;;;;;;;;;;;;;;;2210449;59;1203;-70
2022/03/08 09:40:58;;;;;;;;;;;;;;;;;;2211341;67;1233;-70
2022/03/08 09:43:31;;;;;;;;;;;;;;;;;;2210882;59;1789;-69
2022/03/08 09:46:05;;;;;;;;;;;;;;;;;;2211083;59;1298;-70
2022/03/08 09:48:40;;;;;;;;;;;;;;;;;;2210355;67;1417;-70
2022/03/08 09:51:14;;;;;;;;;;;;;;;;;;2210992;59;1163;-70
2022/03/08 09:53:47;;;;;;;;;;;;;;;;;;2210580;59;2178;-70
2022/03/08 09:56:21;;;;;;;;;;;;;;;;;;2211082;67;1120;-70
2022/03/08 09:58:54;;;;;;;;;;;;;;;;;;2210937;67;1224;-70
2022/03/08 10:01:27;;;;;;;;;;;;;;;;;;2210176;59;2136;-70
2022/03/08 10:04:03;;;;;;;;;;;;;;;;;;2209747;67;1167;-70
2022/03/08 10:06:43;;;;;;;;;;;;;;;;;;2210769;67;1302;-70
2022/03/08 10:09:17;;;;;;;;;;;;;;;;;;2211415;67;1073;-70
2022/03/08 10:11:52;;;;;;;;;;;;;;;;;;2211016;59;1242;-70
2022/03/08 10:14:37;;;;;;;;;;;;;;;;;;2211029;67;1929;-70
2022/03/08 10:17:11;;;;;;;;;;;;;;;;;;2210774;67;1246;-70
2022/03/08 10:19:50;;;;;;;;;;;;;;;;;;2210867;67;1221;-70
2022/03/08 10:22:26;;;;;;;;;;;;;;;;;;2210572;59;2009;-70
2022/03/08 10:25:11;;;;;;;;;;;;;;;;;;2210339;59;2092;-70
2022/03/08 10:27:45;;;;;;;;;;;;;;;;;;2211172;67;1148;-70
2022/03/08 10:30:18;;;;;;;;;;;;;;;;;;2210086;67;1276;-70
2022/03/08 10:32:51;;;;;;;;;;;;;;;;;;2210648;67;1937;-70
2022/03/08 10:35:29;;;;;;;;;;;;;;;;;;2210059;67;1196;-70
2022/03/08 10:38:06;;;;;;;;;;;;;;;;;;2210202;67;1207;-70
2022/03/08 10:40:39;;;;;;;;;;;;;;;;;;2210567;67;1343;-70
2022/03/08 10:43:14;;;;;;;;;;;;;;;;;;2208403;59;2109;-70
2022/03/08 10:45:48;;;;;;;;;;;;;;;;;;2210709;59;1317;-70
2022/03/08 10:48:21;;;;;;;;;;;;;;;;;;2211052;67;1267;-70
2022/03/08 10:50:57;;;;;;;;;;;;;;;;;;2210702;67;1197;-70
2022/03/08 10:53:31;;;;;;;;;;;;;;;;;;2211075;59;2009;-70
2022/03/08 10:56:04;;;;;;;;;;;;;;;;;;2210645;59;1287;-70
2022/03/08 10:58:49;;;;;;;;;;;;;;;;;;2211321;67;1203;-70
2022/03/08 11:01:22;;;;;;;;;;;;;;;;;;2210211;59;1722;-71
2022/03/08 11:04:00;;;;;;;;;;;;;;;;;;2211141;53;3637;-69
2022/03/08 11:06:37;;;;;;;;;;;;;;;;;;2211869;59;1262;-69
2022/03/08 11:09:11;;;;;;;;;;;;;;;;;;2211497;59;1223;-69
2022/03/08 11:11:44;;;;;;;;;;;;;;;;;;2211292;59;1411;-69
2022/03/08 11:14:17;;;;;;;;;;;;;;;;;;2210670;67;1985;-69
2022/03/08 11:16:53;;;;;;;;;;;;;;;;;;2210380;59;1183;-69
2022/03/08 11:19:28;;;;;;;;;;;;;;;;;;2211162;59;1198;-69
2022/03/08 11:22:04;;;;;;;;;;;;;;;;;;2208609;59;1648;-69
2022/03/08 11:24:38;;;;;;;;;;;;;;;;;;2210493;59;2000;-70
2022/03/08 11:27:11;;;;;;;;;;;;;;;;;;2211221;59;1118;-69
2022/03/08 11:29:44;;;;;;;;;;;;;;;;;;2210990;67;1327;-70
2022/03/08 11:32:20;;;;;;;;;;;;;;;;;;2210558;59;1727;-69
2022/03/08 11:34:56;;;;;;;;;;;;;;;;;;2210464;59;1993;-69
2022/03/08 11:37:36;;;;;;;;;;;;;;;;;;2210190;59;1314;-69
2022/03/08 11:40:11;;;;;;;;;;;;;;;;;;2210764;67;1192;-69
2022/03/08 11:42:46;;;;;;;;;;;;;;;;;;2210415;59;1865;-69
2022/03/08 11:45:21;;;;;;;;;;;;;;;;;;2209877;67;1520;-69
2022/03/08 11:47:55;;;;;;;;;;;;;;;;;;2209957;67;1232;-69
2022/03/08 11:50:31;;;;;;;;;;;;;;;;;;2210935;59;1230;-69
2022/03/08 11:53:11;;;;;;;;;;;;;;;;;;2210910;59;1945;-69
2022/03/08 11:55:55;;;;;;;;;;;;;;;;;;2211290;59;2267;-70
2022/03/08 11:58:43;;;;;;;;;;;;;;;;;;2211588;59;1195;-69
2022/03/08 12:01:24;;;;;;;;;;;;;;;;;;2211091;59;1204;-69
2022/03/08 12:03:58;;;;;;;;;;;;;;;;;;2210901;59;1727;-69
2022/03/08 12:06:32;;;;;;;;;;;;;;;;;;2211257;67;1134;-69
2022/03/08 12:09:12;;;;;;;;;;;;;;;;;;2211126;67;1123;-69
2022/03/08 12:11:49;;;;;;;;;;;;;;;;;;2211309;59;1306;-69
2022/03/08 12:14:24;;;;;;;;;;;;;;;;;;2210863;67;1987;-69
2022/03/08 12:17:08;;;;;;;;;;;;;;;;;;2211014;59;1135;-69
2022/03/08 12:19:42;;;;;;;;;;;;;;;;;;2211682;67;1236;-69
2022/03/08 12:22:16;;;;;;;;;;;;;;;;;;2210028;59;1649;-69
2022/03/08 12:24:54;;;;;;;;;;;;;;;;;;2211131;59;2140;-69
2022/03/08 12:27:47;;;;;;;;;;;;;;;;;;2210710;59;1524;-69
2022/03/08 12:30:20;;;;;;;;;;;;;;;;;;2211382;59;1255;-69
2022/03/08 12:32:58;;;;;;;;;;;;;;;;;;2211470;67;1979;-69
2022/03/08 12:35:31;;;;;;;;;;;;;;;;;;2211531;67;1136;-69
2022/03/08 12:38:05;;;;;;;;;;;;;;;;;;2211212;59;1260;-69
2022/03/08 12:40:41;;;;;;;;;;;;;;;;;;2211430;59;1262;-69
2022/03/08 12:43:15;;;;;;;;;;;;;;;;;;2210745;59;1714;-69
2022/03/08 12:45:48;;;;;;;;;;;;;;;;;;2210781;59;1925;-69
2022/03/08 12:48:23;;;;;;;;;;;;;;;;;;2211238;67;1173;-69
2022/03/08 12:50:57;;;;;;;;;;;;;;;;;;2211115;59;1196;-69
2022/03/08 12:53:32;;;;;;;;;;;;;;;;;;2209451;59;3598;-69
2022/03/08 12:56:13;;;;;;;;;;;;;;;;;;2211109;67;1216;-69
2022/03/08 12:58:46;;;;;;;;;;;;;;;;;;2211434;59;1143;-69
2022/03/08 13:01:20;;;;;;;;;;;;;;;;;;2211010;59;1176;-69
2022/03/08 13:03:53;;;;;;;;;;;;;;;;;;2210741;59;1877;-69
2022/03/08 13:06:26;;;;;;;;;;;;;;;;;;2210597;59;1556;-69
2022/03/08 13:09:06;;;;;;;;;;;;;;;;;;2210822;67;1220;-69
2022/03/08 13:11:42;;;;;;;;;;;;;;;;;;2211164;67;1184;-69
2022/03/08 13:14:20;;;;;;;;;;;;;;;;;;2210670;67;1939;-69
2022/03/08 13:16:53;;;;;;;;;;;;;;;;;;2210598;67;1057;-69
2022/03/08 13:19:26;;;;;;;;;;;;;;;;;;2211258;67;1400;-69
2022/03/08 13:22:00;;;;;;;;;;;;;;;;;;2210483;59;1715;-70
2022/03/08 13:24:34;;;;;;;;;;;;;;;;;;2210570;67;2145;-69
2022/03/08 13:27:09;;;;;;;;;;;;;;;;;;2211059;59;1194;-69
2022/03/08 13:29:42;;;;;;;;;;;;;;;;;;2211186;59;1112;-69
2022/03/08 13:32:16;;;;;;;;;;;;;;;;;;2210499;67;1243;-69
2022/03/08 13:35:02;;;;;;;;;;;;;;;;;;2210811;67;1995;-69
2022/03/08 13:37:48;;;;;;;;;;;;;;;;;;2211114;67;1204;-69
2022/03/08 13:40:27;;;;;;;;;;;;;;;;;;2210367;67;1120;-69
2022/03/08 13:43:03;;;;;;;;;;;;;;;;;;2210222;59;1740;-69
2022/03/08 13:45:36;;;;;;;;;;;;;;;;;;2210896;67;1272;-69
2022/03/08 13:48:12;;;;;;;;;;;;;;;;;;2210885;67;1275;-69
2022/03/08 13:50:48;;;;;;;;;;;;;;;;;;2211274;67;1113;-69
2022/03/08 13:53:21;;;;;;;;;;;;;;;;;;2211168;59;2087;-69
2022/03/08 13:55:58;;;;;;;;;;;;;;;;;;2210885;67;1137;-69
2022/03/08 13:58:41;;;;;;;;;;;;;;;;;;2211277;67;1054;-69
2022/03/08 14:01:15;;;;;;;;;;;;;;;;;;2210793;67;1135;-69
2022/03/08 14:03:49;;;;;;;;;;;;;;;;;;2210768;59;1889;-69
2022/03/08 14:06:26;;;;;;;;;;;;;;;;;;2211011;67;1126;-69
2022/03/08 14:09:00;;;;;;;;;;;;;;;;;;2211148;67;1277;-69
2022/03/08 14:11:33;;;;;;;;;;;;;;;;;;2211303;67;1145;-69
2022/03/08 14:14:09;;;;;;;;;;;;;;;;;;2209516;59;2003;-69
2022/03/08 14:16:43;;;;;;;;;;;;;;;;;;2210897;59;1207;-69
2022/03/08 14:19:18;;;;;;;;;;;;;;;;;;2210582;59;1480;-70
2022/03/08 14:21:53;;;;;;;;;;;;;;;;;;2210524;59;1688;-69
2022/03/08 14:24:26;;;;;;;;;;;;;;;;;;2211212;59;2160;-69
2022/03/08 14:27:01;;;;;;;;;;;;;;;;;;2210558;59;2098;-70
2022/03/08 14:29:38;;;;;;;;;;;;;;;;;;2211255;67;1145;-69
2022/03/08 14:32:12;;;;;;;;;;;;;;;;;;2207767;59;1494;-69
2022/03/08 14:34:45;;;;;;;;;;;;;;;;;;2211065;67;2000;-69
2022/03/08 14:37:18;;;;;;;;;;;;;;;;;;2211111;59;1195;-69
2022/03/08 14:39:54;;;;;;;;;;;;;;;;;;2211338;67;1267;-69
2022/03/08 14:42:27;;;;;;;;;;;;;;;;;;2210430;59;1676;-69
2022/03/08 14:45:03;;;;;;;;;;;;;;;;;;2210803;67;1153;-69
2022/03/08 14:47:38;;;;;;;;;;;;;;;;;;2210743;67;1179;-69
2022/03/08 14:50:16;;;;;;;;;;;;;;;;;;2211342;59;1249;-69
2022/03/08 14:52:53;;;;;;;;;;;;;;;;;;2210603;59;1158;-70
2022/03/08 14:55:26;;;;;;;;;;;;;;;;;;2210756;59;2136;-69
2022/03/08 14:57:59;;;;;;;;;;;;;;;;;;2210509;67;1149;-69
2022/03/08 15:00:35;;;;;;;;;;;;;;;;;;2210661;67;1109;-69
2022/03/08 15:03:08;;;;;;;;;;;;;;;;;;2210527;59;1764;-69
2022/03/08 15:05:41;;;;;;;;;;;;;;;;;;2210951;59;1192;-69
2022/03/08 15:08:15;;;;;;;;;;;;;;;;;;2210865;59;1188;-69
2022/03/08 15:10:48;;;;;;;;;;;;;;;;;;2210573;67;1167;-69
2022/03/08 15:13:21;;;;;;;;;;;;;;;;;;2210862;59;1216;-69
2022/03/08 15:15:57;;;;;;;;;;;;;;;;;;2209837;67;1987;-69
2022/03/08 15:18:31;;;;;;;;;;;;;;;;;;2210490;67;1143;-69
2022/03/08 15:21:04;;;;;;;;;;;;;;;;;;2211000;59;1195;-69
2022/03/08 15:23:37;;;;;;;;;;;;;;;;;;2210775;59;1909;-69
2022/03/08 15:26:11;;;;;;;;;;;;;;;;;;2211806;67;1226;-69
2022/03/08 15:28:44;;;;;;;;;;;;;;;;;;2211512;67;1342;-69
2022/03/08 15:31:20;;;;;;;;;;;;;;;;;;2211574;59;1306;-69
2022/03/08 15:33:54;;;;;;;;;;;;;;;;;;2210575;67;1918;-69
2022/03/08 15:36:27;;;;;;;;;;;;;;;;;;2209986;67;1151;-69
2022/03/08 15:39:00;;;;;;;;;;;;;;;;;;2211482;67;1163;-69
2022/03/08 15:41:33;;;;;;;;;;;;;;;;;;2211406;67;1296;-69
2022/03/08 15:44:07;;;;;;;;;;;;;;;;;;2211073;59;1907;-69
2022/03/08 15:46:43;;;;;;;;;;;;;;;;;;2211272;67;1365;-69
2022/03/08 15:49:16;;;;;;;;;;;;;;;;;;2211794;67;1278;-69
2022/03/08 15:51:49;;;;;;;;;;;;;;;;;;2211168;67;1220;-69
2022/03/08 15:54:23;;;;;;;;;;;;;;;;;;2210895;59;2160;-69
2022/03/08 15:56:56;;;;;;;;;;;;;;;;;;2211496;67;1249;-68
2022/03/08 15:59:29;;;;;;;;;;;;;;;;;;2211473;67;1250;-69
2022/03/08 16:02:06;;;;;;;;;;;;;;;;;;2209168;59;1848;-69
2022/03/08 16:04:39;;;;;;;;;;;;;;;;;;2211398;67;1314;-69
2022/03/08 16:07:14;;;;;;;;;;;;;;;;;;2211416;67;1217;-69
2022/03/08 16:09:47;;;;;;;;;;;;;;;;;;2211069;59;1142;-69
2022/03/08 16:12:21;;;;;;;;;;;;;;;;;;2209964;67;1419;-69
2022/03/08 16:14:54;;;;;;;;;;;;;;;;;;2210775;59;1932;-69
2022/03/08 16:17:30;;;;;;;;;;;;;;;;;;2211183;67;1230;-69
2022/03/08 16:20:03;;;;;;;;;;;;;;;;;;2210668;59;1282;-69
2022/03/08 16:22:37;;;;;;;;;;;;;;;;;;2209492;59;2003;-69
2022/03/08 16:25:11;;;;;;;;;;;;;;;;;;2210878;59;2158;-69
2022/03/08 16:27:44;;;;;;;;;;;;;;;;;;2210833;59;1635;-69
2022/03/08 16:30:17;;;;;;;;;;;;;;;;;;2211288;67;1260;-70
2022/03/08 16:32:53;;;;;;;;;;;;;;;;;;2211276;67;1314;-69
2022/03/08 16:35:26;;;;;;;;;;;;;;;;;;2210886;67;1936;-69
2022/03/08 16:38:00;;;;;;;;;;;;;;;;;;2211085;59;1258;-69
2022/03/08 16:40:33;;;;;;;;;;;;;;;;;;2211264;59;1189;-69
2022/03/08 16:43:08;;;;;;;;;;;;;;;;;;2210007;59;1840;-69
2022/03/08 16:45:41;;;;;;;;;;;;;;;;;;2211356;67;1252;-69
2022/03/08 16:48:17;;;;;;;;;;;;;;;;;;2211635;67;1160;-69
2022/03/08 16:50:53;;;;;;;;;;;;;;;;;;2210903;59;1125;-70
2022/03/08 16:53:26;;;;;;;;;;;;;;;;;;2210106;59;2138;-69
2022/03/08 16:55:59;;;;;;;;;;;;;;;;;;2208064;67;2019;-69
2022/03/08 16:58:33;;;;;;;;;;;;;;;;;;2211403;59;1140;-69
2022/03/08 17:01:06;;;;;;;;;;;;;;;;;;2210460;67;1223;-69
2022/03/08 17:03:42;;;;;;;;;;;;;;;;;;2209988;53;3615;-72
2022/03/08 17:06:16;;;;;;;;;;;;;;;;;;2208238;59;1244;-70
2022/03/08 17:08:49;;;;;;;;;;;;;;;;;;2210498;59;1136;-72
2022/03/08 17:11:22;;;;;;;;;;;;;;;;;;2208979;59;2139;-72
2022/03/08 17:13:55;;;;;;;;;;;;;;;;;;2205154;59;1229;-72
2022/03/08 17:16:28;;;;;;;;;;;;;;;;;;2206224;59;1947;-72
2022/03/08 17:19:04;;;;;;;;;;;;;;;;;;2204762;59;1165;-72
2022/03/08 17:21:39;;;;;;;;;;;;;;;;;;2204671;60;1765;-69
2022/03/08 17:24:12;;;;;;;;;;;;;;;;;;2205460;59;1843;-70
2022/03/08 17:26:45;;;;;;;;;;;;;;;;;;2205918;67;1260;-70
2022/03/08 17:29:18;;;;;;;;;;;;;;;;;;2205108;59;1248;-69
2022/03/08 17:31:52;;;;;;;;;;;;;;;;;;2204970;59;1257;-69
2022/03/08 17:34:28;;;;;;;;;;;;;;;;;;2205128;59;1090;-70
2022/03/08 17:37:01;;;;;;;;;;;;;;;;;;2206170;67;1993;-69
2022/03/08 17:39:34;;;;;;;;;;;;;;;;;;2205032;59;1141;-70
2022/03/08 17:42:07;;;;;;;;;;;;;;;;;;2203463;59;2264;-70
2022/03/08 17:44:41;;;;;;;;;;;;;;;;;;2206098;59;1757;-72
2022/03/08 17:47:14;;;;;;;;;;;;;;;;;;2204289;59;1066;-70
2022/03/08 17:49:50;;;;;;;;;;;;;;;;;;2204165;67;1416;-70
2022/03/08 17:52:24;;;;;;;;;;;;;;;;;;2203907;67;1418;-70